sensor_id;sensor_type;location;lat;lon;timestamp;temperature;humidity
336;DHT22;156;48.738;9.228;2022-08-21T00:01:38;16.90;26.30
336;DHT22;156;48.738;9.228;2022-08-21T00:04:06;16.80;32.20
336;DHT22;156;48.738;9.228;2022-08-21T00:06:33;16.70;22.40
336;DHT22;156;48.738;9.228;2022-08-21T00:09:01;16.80;18.30
336;DHT22;156;48.738;9.228;2022-08-21T00:11:28;16.80;17.60
336;DHT22;156;48.738;9.228;2022-08-21T00:13:55;16.80;14.80
336;DHT22;156;48.738;9.228;2022-08-21T00:16:22;16.80;15.00
336;DHT22;156;48.738;9.228;2022-08-21T00:18:50;16.70;15.20
336;DHT22;156;48.738;9.228;2022-08-21T00:21:17;16.70;14.30
336;DHT22;156;48.738;9.228;2022-08-21T00:23:44;16.80;14.10
336;DHT22;156;48.738;9.228;2022-08-21T00:26:11;16.70;14.00
336;DHT22;156;48.738;9.228;2022-08-21T00:28:38;16.80;12.00
336;DHT22;156;48.738;9.228;2022-08-21T00:31:05;16.80;12.30
336;DHT22;156;48.738;9.228;2022-08-21T00:33:33;16.80;12.70
336;DHT22;156;48.738;9.228;2022-08-21T00:36:02;16.70;12.60
336;DHT22;156;48.738;9.228;2022-08-21T00:38:29;16.70;14.80
336;DHT22;156;48.738;9.228;2022-08-21T00:40:58;16.80;13.80
336;DHT22;156;48.738;9.228;2022-08-21T00:43:34;16.80;12.40
336;DHT22;156;48.738;9.228;2022-08-21T00:46:01;16.80;13.30
336;DHT22;156;48.738;9.228;2022-08-21T00:48:28;16.80;14.00
336;DHT22;156;48.738;9.228;2022-08-21T00:50:58;16.80;14.40
336;DHT22;156;48.738;9.228;2022-08-21T00:53:28;16.70;14.90
336;DHT22;156;48.738;9.228;2022-08-21T00:55:56;16.70;14.90
336;DHT22;156;48.738;9.228;2022-08-21T00:58:24;16.80;14.90
336;DHT22;156;48.738;9.228;2022-08-21T01:00:53;16.90;10.50
336;DHT22;156;48.738;9.228;2022-08-21T01:03:22;16.90;6.70
336;DHT22;156;48.738;9.228;2022-08-21T01:05:50;16.90;7.00
336;DHT22;156;48.738;9.228;2022-08-21T01:08:18;16.90;6.80
336;DHT22;156;48.738;9.228;2022-08-21T01:10:47;16.80;9.10
336;DHT22;156;48.738;9.228;2022-08-21T01:13:16;16.80;10.00
336;DHT22;156;48.738;9.228;2022-08-21T01:15:47;16.80;10.80
336;DHT22;156;48.738;9.228;2022-08-21T01:18:15;16.90;8.50
336;DHT22;156;48.738;9.228;2022-08-21T01:20:51;16.80;9.50
336;DHT22;156;48.738;9.228;2022-08-21T01:23:18;16.80;10.90
336;DHT22;156;48.738;9.228;2022-08-21T01:25:45;16.70;11.50
336;DHT22;156;48.738;9.228;2022-08-21T01:28:13;16.60;14.00
336;DHT22;156;48.738;9.228;2022-08-21T01:30:42;16.60;15.80
336;DHT22;156;48.738;9.228;2022-08-21T01:33:09;16.60;14.20
336;DHT22;156;48.738;9.228;2022-08-21T01:35:37;16.60;16.50
336;DHT22;156;48.738;9.228;2022-08-21T01:38:05;16.50;16.90
336;DHT22;156;48.738;9.228;2022-08-21T01:40:32;16.50;18.10
336;DHT22;156;48.738;9.228;2022-08-21T01:42:59;16.40;22.20
336;DHT22;156;48.738;9.228;2022-08-21T01:45:26;16.30;22.60
336;DHT22;156;48.738;9.228;2022-08-21T01:47:53;16.30;22.70
336;DHT22;156;48.738;9.228;2022-08-21T01:50:20;16.10;25.90
336;DHT22;156;48.738;9.228;2022-08-21T01:52:48;16.00;26.10
336;DHT22;156;48.738;9.228;2022-08-21T01:55:17;16.00;30.20
336;DHT22;156;48.738;9.228;2022-08-21T01:57:45;16.10;29.80
336;DHT22;156;48.738;9.228;2022-08-21T02:00:14;16.00;36.30
336;DHT22;156;48.738;9.228;2022-08-21T02:02:42;16.00;32.70
336;DHT22;156;48.738;9.228;2022-08-21T02:05:11;16.00;33.60
336;DHT22;156;48.738;9.228;2022-08-21T02:07:39;15.90;34.40
336;DHT22;156;48.738;9.228;2022-08-21T02:10:10;15.90;34.00
336;DHT22;156;48.738;9.228;2022-08-21T02:12:38;15.90;32.80
336;DHT22;156;48.738;9.228;2022-08-21T02:15:07;15.90;35.70
336;DHT22;156;48.738;9.228;2022-08-21T02:17:43;15.90;33.10
336;DHT22;156;48.738;9.228;2022-08-21T02:20:18;15.90;32.00
336;DHT22;156;48.738;9.228;2022-08-21T02:22:45;15.90;27.50
336;DHT22;156;48.738;9.228;2022-08-21T02:25:12;15.90;29.60
336;DHT22;156;48.738;9.228;2022-08-21T02:27:43;16.00;33.60
336;DHT22;156;48.738;9.228;2022-08-21T02:30:13;16.00;34.60
336;DHT22;156;48.738;9.228;2022-08-21T02:32:40;16.00;36.50
336;DHT22;156;48.738;9.228;2022-08-21T02:35:08;16.00;42.40
336;DHT22;156;48.738;9.228;2022-08-21T02:37:43;16.00;40.00
336;DHT22;156;48.738;9.228;2022-08-21T02:40:11;15.90;37.00
336;DHT22;156;48.738;9.228;2022-08-21T02:42:40;15.80;38.60
336;DHT22;156;48.738;9.228;2022-08-21T02:45:07;15.70;39.30
336;DHT22;156;48.738;9.228;2022-08-21T02:47:34;15.70;41.60
336;DHT22;156;48.738;9.228;2022-08-21T02:50:02;15.70;44.20
336;DHT22;156;48.738;9.228;2022-08-21T02:52:29;15.70;45.50
336;DHT22;156;48.738;9.228;2022-08-21T02:54:56;15.60;50.10
336;DHT22;156;48.738;9.228;2022-08-21T02:57:23;15.60;49.10
336;DHT22;156;48.738;9.228;2022-08-21T02:59:51;15.60;45.40
336;DHT22;156;48.738;9.228;2022-08-21T03:02:18;15.50;46.30
336;DHT22;156;48.738;9.228;2022-08-21T03:04:47;15.50;45.90
336;DHT22;156;48.738;9.228;2022-08-21T03:07:13;15.50;46.50
336;DHT22;156;48.738;9.228;2022-08-21T03:09:40;15.50;46.20
336;DHT22;156;48.738;9.228;2022-08-21T03:12:07;15.60;45.90
336;DHT22;156;48.738;9.228;2022-08-21T03:14:34;15.50;46.70
336;DHT22;156;48.738;9.228;2022-08-21T03:17:02;15.50;43.60
336;DHT22;156;48.738;9.228;2022-08-21T03:19:29;15.60;41.90
336;DHT22;156;48.738;9.228;2022-08-21T03:21:56;15.60;39.30
336;DHT22;156;48.738;9.228;2022-08-21T03:24:23;15.60;39.30
336;DHT22;156;48.738;9.228;2022-08-21T03:26:50;15.60;43.00
336;DHT22;156;48.738;9.228;2022-08-21T03:29:17;15.50;45.90
336;DHT22;156;48.738;9.228;2022-08-21T03:31:44;15.40;50.10
336;DHT22;156;48.738;9.228;2022-08-21T03:34:12;15.40;49.70
336;DHT22;156;48.738;9.228;2022-08-21T03:36:39;15.40;50.40
336;DHT22;156;48.738;9.228;2022-08-21T03:39:06;15.30;48.70
336;DHT22;156;48.738;9.228;2022-08-21T03:41:33;15.30;50.90
336;DHT22;156;48.738;9.228;2022-08-21T03:44:00;15.20;53.50
336;DHT22;156;48.738;9.228;2022-08-21T03:46:27;15.20;56.90
336;DHT22;156;48.738;9.228;2022-08-21T03:48:53;15.10;57.70
336;DHT22;156;48.738;9.228;2022-08-21T03:51:22;15.10;59.10
336;DHT22;156;48.738;9.228;2022-08-21T03:53:49;15.10;61.40
336;DHT22;156;48.738;9.228;2022-08-21T03:56:16;15.00;62.30
336;DHT22;156;48.738;9.228;2022-08-21T03:58:43;15.10;62.70
336;DHT22;156;48.738;9.228;2022-08-21T04:01:11;15.10;65.50
336;DHT22;156;48.738;9.228;2022-08-21T04:03:38;15.10;67.70
336;DHT22;156;48.738;9.228;2022-08-21T04:06:06;15.00;71.90
336;DHT22;156;48.738;9.228;2022-08-21T04:08:34;15.10;74.70
336;DHT22;156;48.738;9.228;2022-08-21T04:11:01;15.10;74.70
336;DHT22;156;48.738;9.228;2022-08-21T04:13:28;15.10;75.10
336;DHT22;156;48.738;9.228;2022-08-21T04:15:56;15.20;76.00
336;DHT22;156;48.738;9.228;2022-08-21T04:18:23;15.10;74.80
336;DHT22;156;48.738;9.228;2022-08-21T04:20:51;15.00;79.00
336;DHT22;156;48.738;9.228;2022-08-21T04:23:20;14.90;83.90
336;DHT22;156;48.738;9.228;2022-08-21T04:25:48;14.90;83.40
336;DHT22;156;48.738;9.228;2022-08-21T04:28:15;14.90;84.30
336;DHT22;156;48.738;9.228;2022-08-21T04:30:42;14.80;83.10
336;DHT22;156;48.738;9.228;2022-08-21T04:33:09;14.70;84.50
336;DHT22;156;48.738;9.228;2022-08-21T04:35:36;14.90;81.40
336;DHT22;156;48.738;9.228;2022-08-21T04:38:03;14.80;80.70
336;DHT22;156;48.738;9.228;2022-08-21T04:40:30;14.80;80.80
336;DHT22;156;48.738;9.228;2022-08-21T04:43:02;14.80;81.00
336;DHT22;156;48.738;9.228;2022-08-21T04:45:32;14.70;81.20
336;DHT22;156;48.738;9.228;2022-08-21T04:48:01;14.70;83.60
336;DHT22;156;48.738;9.228;2022-08-21T04:50:41;14.70;81.40
336;DHT22;156;48.738;9.228;2022-08-21T04:53:14;14.60;82.20
336;DHT22;156;48.738;9.228;2022-08-21T04:55:43;14.60;81.60
336;DHT22;156;48.738;9.228;2022-08-21T04:58:13;14.70;74.60
336;DHT22;156;48.738;9.228;2022-08-21T05:00:41;14.90;67.50
336;DHT22;156;48.738;9.228;2022-08-21T05:03:13;14.90;63.80
336;DHT22;156;48.738;9.228;2022-08-21T05:05:40;15.10;57.00
336;DHT22;156;48.738;9.228;2022-08-21T05:08:09;15.20;53.30
336;DHT22;156;48.738;9.228;2022-08-21T05:10:38;15.20;50.40
336;DHT22;156;48.738;9.228;2022-08-21T05:13:06;15.20;51.40
336;DHT22;156;48.738;9.228;2022-08-21T05:15:38;15.30;50.10
336;DHT22;156;48.738;9.228;2022-08-21T05:18:05;15.40;46.50
336;DHT22;156;48.738;9.228;2022-08-21T05:20:33;15.40;44.20
336;DHT22;156;48.738;9.228;2022-08-21T05:23:00;15.50;42.10
336;DHT22;156;48.738;9.228;2022-08-21T05:25:27;15.60;40.90
336;DHT22;156;48.738;9.228;2022-08-21T05:27:54;15.60;39.20
336;DHT22;156;48.738;9.228;2022-08-21T05:30:21;15.80;37.80
336;DHT22;156;48.738;9.228;2022-08-21T05:32:55;15.80;40.00
336;DHT22;156;48.738;9.228;2022-08-21T05:35:22;15.80;41.90
336;DHT22;156;48.738;9.228;2022-08-21T05:37:49;15.80;44.70
336;DHT22;156;48.738;9.228;2022-08-21T05:40:16;15.80;45.30
336;DHT22;156;48.738;9.228;2022-08-21T05:42:49;15.80;44.20
336;DHT22;156;48.738;9.228;2022-08-21T05:45:27;15.80;44.80
336;DHT22;156;48.738;9.228;2022-08-21T05:48:05;15.80;46.10
336;DHT22;156;48.738;9.228;2022-08-21T05:50:33;15.90;41.60
336;DHT22;156;48.738;9.228;2022-08-21T05:53:00;15.90;39.40
336;DHT22;156;48.738;9.228;2022-08-21T05:55:28;16.00;40.30
336;DHT22;156;48.738;9.228;2022-08-21T05:57:55;16.00;39.60
336;DHT22;156;48.738;9.228;2022-08-21T06:00:21;16.00;41.40
336;DHT22;156;48.738;9.228;2022-08-21T06:02:49;16.10;41.30
336;DHT22;156;48.738;9.228;2022-08-21T06:05:18;16.10;39.70
336;DHT22;156;48.738;9.228;2022-08-21T06:07:47;16.20;41.60
336;DHT22;156;48.738;9.228;2022-08-21T06:10:19;16.20;40.50
336;DHT22;156;48.738;9.228;2022-08-21T06:12:46;16.30;43.50
336;DHT22;156;48.738;9.228;2022-08-21T06:15:13;16.40;44.80
336;DHT22;156;48.738;9.228;2022-08-21T06:17:40;16.50;42.00
336;DHT22;156;48.738;9.228;2022-08-21T06:20:08;16.60;41.20
336;DHT22;156;48.738;9.228;2022-08-21T06:22:36;16.60;39.10
336;DHT22;156;48.738;9.228;2022-08-21T06:25:04;16.70;38.10
336;DHT22;156;48.738;9.228;2022-08-21T06:27:31;16.70;36.50
336;DHT22;156;48.738;9.228;2022-08-21T06:29:58;16.80;33.70
336;DHT22;156;48.738;9.228;2022-08-21T06:32:25;16.80;28.40
336;DHT22;156;48.738;9.228;2022-08-21T06:34:51;16.90;22.30
336;DHT22;156;48.738;9.228;2022-08-21T06:37:18;17.00;24.10
336;DHT22;156;48.738;9.228;2022-08-21T06:39:59;17.10;24.40
336;DHT22;156;48.738;9.228;2022-08-21T06:42:26;17.10;25.70
336;DHT22;156;48.738;9.228;2022-08-21T06:44:53;17.20;26.90
336;DHT22;156;48.738;9.228;2022-08-21T06:47:20;17.30;23.60
336;DHT22;156;48.738;9.228;2022-08-21T06:49:47;17.40;25.10
336;DHT22;156;48.738;9.228;2022-08-21T06:52:14;17.40;26.80
336;DHT22;156;48.738;9.228;2022-08-21T06:54:44;17.50;26.70
336;DHT22;156;48.738;9.228;2022-08-21T06:57:12;17.60;25.50
336;DHT22;156;48.738;9.228;2022-08-21T06:59:39;17.70;20.50
336;DHT22;156;48.738;9.228;2022-08-21T07:02:09;17.70;18.50
336;DHT22;156;48.738;9.228;2022-08-21T07:04:36;17.80;14.10
336;DHT22;156;48.738;9.228;2022-08-21T07:07:03;17.90;17.50
336;DHT22;156;48.738;9.228;2022-08-21T07:09:30;18.00;16.00
336;DHT22;156;48.738;9.228;2022-08-21T07:11:58;18.00;16.30
336;DHT22;156;48.738;9.228;2022-08-21T07:14:29;18.20;14.50
336;DHT22;156;48.738;9.228;2022-08-21T07:16:57;18.20;15.00
336;DHT22;156;48.738;9.228;2022-08-21T07:19:24;18.30;15.20
336;DHT22;156;48.738;9.228;2022-08-21T07:21:59;18.40;16.80
336;DHT22;156;48.738;9.228;2022-08-21T07:24:27;18.50;16.00
336;DHT22;156;48.738;9.228;2022-08-21T07:26:53;18.60;19.50
336;DHT22;156;48.738;9.228;2022-08-21T07:29:20;18.70;22.20
336;DHT22;156;48.738;9.228;2022-08-21T07:31:49;18.80;27.70
336;DHT22;156;48.738;9.228;2022-08-21T07:34:16;19.00;26.30
336;DHT22;156;48.738;9.228;2022-08-21T07:36:42;19.10;22.40
336;DHT22;156;48.738;9.228;2022-08-21T07:39:09;19.10;19.90
336;DHT22;156;48.738;9.228;2022-08-21T07:41:36;19.20;14.70
336;DHT22;156;48.738;9.228;2022-08-21T07:44:03;19.20;17.40
336;DHT22;156;48.738;9.228;2022-08-21T07:46:30;19.30;13.10
336;DHT22;156;48.738;9.228;2022-08-21T07:48:58;19.40;13.30
336;DHT22;156;48.738;9.228;2022-08-21T07:51:28;19.40;11.90
336;DHT22;156;48.738;9.228;2022-08-21T07:53:57;19.50;13.80
336;DHT22;156;48.738;9.228;2022-08-21T07:56:25;19.50;16.20
336;DHT22;156;48.738;9.228;2022-08-21T07:58:52;19.60;13.40
336;DHT22;156;48.738;9.228;2022-08-21T08:01:20;19.70;11.10
336;DHT22;156;48.738;9.228;2022-08-21T08:03:48;19.80;13.40
336;DHT22;156;48.738;9.228;2022-08-21T08:06:16;19.90;12.00
336;DHT22;156;48.738;9.228;2022-08-21T08:08:45;20.00;6.60
336;DHT22;156;48.738;9.228;2022-08-21T08:11:13;20.00;8.40
336;DHT22;156;48.738;9.228;2022-08-21T08:13:43;20.20;1.70
336;DHT22;156;48.738;9.228;2022-08-21T08:16:11;20.30;1.00
336;DHT22;156;48.738;9.228;2022-08-21T08:18:38;20.50;3.70
336;DHT22;156;48.738;9.228;2022-08-21T08:21:06;20.50;1.00
336;DHT22;156;48.738;9.228;2022-08-21T08:23:35;20.50;1.00
336;DHT22;156;48.738;9.228;2022-08-21T08:26:02;20.60;1.00
336;DHT22;156;48.738;9.228;2022-08-21T08:28:32;20.70;1.00
336;DHT22;156;48.738;9.228;2022-08-21T08:31:09;20.60;1.00
336;DHT22;156;48.738;9.228;2022-08-21T08:33:37;20.60;1.00
336;DHT22;156;48.738;9.228;2022-08-21T08:36:04;20.70;1.00
336;DHT22;156;48.738;9.228;2022-08-21T08:38:31;20.80;1.00
336;DHT22;156;48.738;9.228;2022-08-21T08:41:04;20.80;1.00
336;DHT22;156;48.738;9.228;2022-08-21T08:43:34;20.90;1.00
336;DHT22;156;48.738;9.228;2022-08-21T08:46:03;21.00;1.00
336;DHT22;156;48.738;9.228;2022-08-21T08:48:40;21.00;1.00
336;DHT22;156;48.738;9.228;2022-08-21T08:51:15;20.90;1.00
336;DHT22;156;48.738;9.228;2022-08-21T08:53:49;21.00;1.00
336;DHT22;156;48.738;9.228;2022-08-21T08:56:26;21.10;1.00
336;DHT22;156;48.738;9.228;2022-08-21T08:58:59;21.20;1.00
336;DHT22;156;48.738;9.228;2022-08-21T09:01:27;21.20;1.00
336;DHT22;156;48.738;9.228;2022-08-21T09:03:56;21.30;1.00
336;DHT22;156;48.738;9.228;2022-08-21T09:06:41;21.40;1.00
336;DHT22;156;48.738;9.228;2022-08-21T09:09:22;21.60;1.00
336;DHT22;156;48.738;9.228;2022-08-21T09:12:05;21.70;1.00
336;DHT22;156;48.738;9.228;2022-08-21T09:14:45;21.80;1.00
336;DHT22;156;48.738;9.228;2022-08-21T09:17:23;21.90;1.00
336;DHT22;156;48.738;9.228;2022-08-21T09:20:11;22.00;1.00
336;DHT22;156;48.738;9.228;2022-08-21T09:22:50;22.10;1.00
336;DHT22;156;48.738;9.228;2022-08-21T09:25:25;22.20;1.00
336;DHT22;156;48.738;9.228;2022-08-21T09:27:54;22.30;1.00
336;DHT22;156;48.738;9.228;2022-08-21T09:30:26;22.20;1.00
336;DHT22;156;48.738;9.228;2022-08-21T09:32:57;22.40;1.00
336;DHT22;156;48.738;9.228;2022-08-21T09:35:26;22.50;1.00
336;DHT22;156;48.738;9.228;2022-08-21T09:37:57;22.60;1.00
336;DHT22;156;48.738;9.228;2022-08-21T09:40:35;22.50;1.00
336;DHT22;156;48.738;9.228;2022-08-21T09:43:07;22.50;1.00
336;DHT22;156;48.738;9.228;2022-08-21T09:45:44;22.50;1.00
336;DHT22;156;48.738;9.228;2022-08-21T09:48:13;22.80;1.00
336;DHT22;156;48.738;9.228;2022-08-21T09:50:51;23.00;1.00
336;DHT22;156;48.738;9.228;2022-08-21T09:53:21;23.20;1.00
336;DHT22;156;48.738;9.228;2022-08-21T09:55:53;23.30;1.00
336;DHT22;156;48.738;9.228;2022-08-21T09:58:41;23.30;1.00
336;DHT22;156;48.738;9.228;2022-08-21T10:01:15;23.30;1.00
336;DHT22;156;48.738;9.228;2022-08-21T10:03:42;23.40;1.00
336;DHT22;156;48.738;9.228;2022-08-21T10:06:19;23.40;1.00
336;DHT22;156;48.738;9.228;2022-08-21T10:08:47;23.30;1.00
336;DHT22;156;48.738;9.228;2022-08-21T10:11:16;23.20;1.00
336;DHT22;156;48.738;9.228;2022-08-21T10:13:50;23.30;1.00
336;DHT22;156;48.738;9.228;2022-08-21T10:16:30;23.40;1.00
336;DHT22;156;48.738;9.228;2022-08-21T10:19:08;23.50;1.00
336;DHT22;156;48.738;9.228;2022-08-21T10:21:47;23.50;1.00
336;DHT22;156;48.738;9.228;2022-08-21T10:24:27;23.70;1.00
336;DHT22;156;48.738;9.228;2022-08-21T10:27:05;23.70;1.00
336;DHT22;156;48.738;9.228;2022-08-21T10:29:46;23.80;1.00
336;DHT22;156;48.738;9.228;2022-08-21T10:32:23;23.80;1.00
336;DHT22;156;48.738;9.228;2022-08-21T10:35:02;23.80;1.00
336;DHT22;156;48.738;9.228;2022-08-21T10:37:44;23.80;1.00
336;DHT22;156;48.738;9.228;2022-08-21T10:40:21;23.80;1.00
336;DHT22;156;48.738;9.228;2022-08-21T10:42:58;23.60;1.00
336;DHT22;156;48.738;9.228;2022-08-21T10:45:39;23.70;1.00
336;DHT22;156;48.738;9.228;2022-08-21T10:48:16;23.80;1.00
336;DHT22;156;48.738;9.228;2022-08-21T10:50:50;23.90;1.00
336;DHT22;156;48.738;9.228;2022-08-21T10:53:36;24.00;1.00
336;DHT22;156;48.738;9.228;2022-08-21T10:56:14;24.00;1.00
336;DHT22;156;48.738;9.228;2022-08-21T10:58:47;24.00;1.00
336;DHT22;156;48.738;9.228;2022-08-21T11:01:22;24.10;1.00
336;DHT22;156;48.738;9.228;2022-08-21T11:04:00;24.20;1.00
336;DHT22;156;48.738;9.228;2022-08-21T11:06:32;24.20;1.00
336;DHT22;156;48.738;9.228;2022-08-21T11:09:05;24.00;1.00
336;DHT22;156;48.738;9.228;2022-08-21T11:11:38;24.00;1.00
336;DHT22;156;48.738;9.228;2022-08-21T11:14:13;24.00;1.00
336;DHT22;156;48.738;9.228;2022-08-21T11:16:51;24.10;1.00
336;DHT22;156;48.738;9.228;2022-08-21T11:19:22;24.00;1.00
336;DHT22;156;48.738;9.228;2022-08-21T11:21:56;24.00;1.00
336;DHT22;156;48.738;9.228;2022-08-21T11:24:30;24.10;1.00
336;DHT22;156;48.738;9.228;2022-08-21T11:27:02;24.20;1.00
336;DHT22;156;48.738;9.228;2022-08-21T11:29:37;24.30;1.00
336;DHT22;156;48.738;9.228;2022-08-21T11:32:31;24.40;1.00
336;DHT22;156;48.738;9.228;2022-08-21T11:35:06;24.40;1.00
336;DHT22;156;48.738;9.228;2022-08-21T11:37:48;24.40;1.00
336;DHT22;156;48.738;9.228;2022-08-21T11:40:34;24.50;1.00
336;DHT22;156;48.738;9.228;2022-08-21T11:43:08;24.60;1.00
336;DHT22;156;48.738;9.228;2022-08-21T11:45:41;24.80;1.00
336;DHT22;156;48.738;9.228;2022-08-21T11:48:19;24.90;1.00
336;DHT22;156;48.738;9.228;2022-08-21T11:50:51;25.10;1.00
336;DHT22;156;48.738;9.228;2022-08-21T11:53:23;25.00;1.00
336;DHT22;156;48.738;9.228;2022-08-21T11:55:56;25.00;1.00
336;DHT22;156;48.738;9.228;2022-08-21T11:58:29;25.00;1.00
336;DHT22;156;48.738;9.228;2022-08-21T12:00:59;25.00;1.00
336;DHT22;156;48.738;9.228;2022-08-21T12:03:31;25.00;1.00
336;DHT22;156;48.738;9.228;2022-08-21T12:06:02;25.10;1.00
336;DHT22;156;48.738;9.228;2022-08-21T12:08:31;25.10;1.00
336;DHT22;156;48.738;9.228;2022-08-21T12:11:02;25.20;1.00
336;DHT22;156;48.738;9.228;2022-08-21T12:13:31;25.50;1.00
336;DHT22;156;48.738;9.228;2022-08-21T12:19:06;25.90;1.00
336;DHT22;156;48.738;9.228;2022-08-21T12:21:34;26.10;1.00
336;DHT22;156;48.738;9.228;2022-08-21T12:24:18;26.10;1.00
336;DHT22;156;48.738;9.228;2022-08-21T12:26:50;26.20;1.00
336;DHT22;156;48.738;9.228;2022-08-21T12:29:23;26.40;1.00
336;DHT22;156;48.738;9.228;2022-08-21T12:31:56;26.30;1.00
336;DHT22;156;48.738;9.228;2022-08-21T12:34:30;26.40;1.00
336;DHT22;156;48.738;9.228;2022-08-21T12:37:00;26.50;1.00
336;DHT22;156;48.738;9.228;2022-08-21T12:39:31;26.70;1.00
336;DHT22;156;48.738;9.228;2022-08-21T12:42:00;26.80;1.00
336;DHT22;156;48.738;9.228;2022-08-21T12:44:38;26.90;1.00
336;DHT22;156;48.738;9.228;2022-08-21T12:47:15;27.10;1.00
336;DHT22;156;48.738;9.228;2022-08-21T12:49:51;27.30;1.00
336;DHT22;156;48.738;9.228;2022-08-21T12:52:22;27.60;1.00
336;DHT22;156;48.738;9.228;2022-08-21T12:54:50;27.90;1.00
336;DHT22;156;48.738;9.228;2022-08-21T12:57:19;28.30;1.00
336;DHT22;156;48.738;9.228;2022-08-21T13:00:00;29.30;1.00
336;DHT22;156;48.738;9.228;2022-08-21T13:02:31;29.40;1.00
336;DHT22;156;48.738;9.228;2022-08-21T13:05:02;29.80;1.00
336;DHT22;156;48.738;9.228;2022-08-21T13:07:31;30.20;1.00
336;DHT22;156;48.738;9.228;2022-08-21T13:10:01;30.80;1.00
336;DHT22;156;48.738;9.228;2022-08-21T13:12:30;29.90;1.00
336;DHT22;156;48.738;9.228;2022-08-21T13:15:00;30.60;1.00
336;DHT22;156;48.738;9.228;2022-08-21T13:17:31;30.30;1.00
336;DHT22;156;48.738;9.228;2022-08-21T13:20:05;30.20;1.00
336;DHT22;156;48.738;9.228;2022-08-21T13:22:40;29.80;1.00
336;DHT22;156;48.738;9.228;2022-08-21T13:25:10;29.80;1.00
336;DHT22;156;48.738;9.228;2022-08-21T13:27:38;30.40;1.00
336;DHT22;156;48.738;9.228;2022-08-21T13:30:09;31.00;1.00
336;DHT22;156;48.738;9.228;2022-08-21T13:32:41;31.30;1.00
336;DHT22;156;48.738;9.228;2022-08-21T13:35:16;30.40;1.00
336;DHT22;156;48.738;9.228;2022-08-21T13:37:45;31.40;1.00
336;DHT22;156;48.738;9.228;2022-08-21T13:40:21;30.80;1.00
336;DHT22;156;48.738;9.228;2022-08-21T13:42:50;31.10;1.00
336;DHT22;156;48.738;9.228;2022-08-21T13:45:23;30.40;1.00
336;DHT22;156;48.738;9.228;2022-08-21T13:47:51;30.20;1.00
336;DHT22;156;48.738;9.228;2022-08-21T13:50:22;29.40;1.00
336;DHT22;156;48.738;9.228;2022-08-21T13:52:57;28.90;1.00
336;DHT22;156;48.738;9.228;2022-08-21T13:55:25;29.10;1.00
336;DHT22;156;48.738;9.228;2022-08-21T13:58:02;29.20;1.00
336;DHT22;156;48.738;9.228;2022-08-21T14:00:32;29.70;1.00
336;DHT22;156;48.738;9.228;2022-08-21T14:03:04;30.10;1.00
336;DHT22;156;48.738;9.228;2022-08-21T14:05:35;29.90;1.00
336;DHT22;156;48.738;9.228;2022-08-21T14:08:07;29.80;1.00
336;DHT22;156;48.738;9.228;2022-08-21T14:10:40;29.60;1.00
336;DHT22;156;48.738;9.228;2022-08-21T14:13:14;30.10;1.00
336;DHT22;156;48.738;9.228;2022-08-21T14:15:54;30.90;1.00
336;DHT22;156;48.738;9.228;2022-08-21T14:18:22;31.10;1.00
336;DHT22;156;48.738;9.228;2022-08-21T14:21:02;31.20;1.00
336;DHT22;156;48.738;9.228;2022-08-21T14:23:30;31.70;1.00
336;DHT22;156;48.738;9.228;2022-08-21T14:25:59;31.70;1.00
336;DHT22;156;48.738;9.228;2022-08-21T14:28:28;31.50;1.00
336;DHT22;156;48.738;9.228;2022-08-21T14:30:57;32.00;1.00
336;DHT22;156;48.738;9.228;2022-08-21T14:33:27;31.90;1.00
336;DHT22;156;48.738;9.228;2022-08-21T14:35:56;31.00;1.00
336;DHT22;156;48.738;9.228;2022-08-21T14:38:25;30.70;1.00
336;DHT22;156;48.738;9.228;2022-08-21T14:40:55;31.40;1.00
336;DHT22;156;48.738;9.228;2022-08-21T14:43:23;31.10;1.00
336;DHT22;156;48.738;9.228;2022-08-21T14:45:52;30.40;1.00
336;DHT22;156;48.738;9.228;2022-08-21T14:48:18;29.40;1.00
336;DHT22;156;48.738;9.228;2022-08-21T14:50:45;29.50;1.00
336;DHT22;156;48.738;9.228;2022-08-21T14:53:14;29.40;1.00
336;DHT22;156;48.738;9.228;2022-08-21T14:55:41;29.00;1.00
336;DHT22;156;48.738;9.228;2022-08-21T14:58:25;29.00;1.00
336;DHT22;156;48.738;9.228;2022-08-21T15:00:54;28.60;1.00
336;DHT22;156;48.738;9.228;2022-08-21T15:03:23;28.60;1.00
336;DHT22;156;48.738;9.228;2022-08-21T15:05:50;28.50;1.00
336;DHT22;156;48.738;9.228;2022-08-21T15:08:19;28.10;1.00
336;DHT22;156;48.738;9.228;2022-08-21T15:10:46;28.30;1.00
336;DHT22;156;48.738;9.228;2022-08-21T15:13:14;28.50;1.00
336;DHT22;156;48.738;9.228;2022-08-21T15:15:42;28.40;1.00
336;DHT22;156;48.738;9.228;2022-08-21T15:18:10;28.50;1.00
336;DHT22;156;48.738;9.228;2022-08-21T15:20:37;28.90;1.00
336;DHT22;156;48.738;9.228;2022-08-21T15:23:06;29.50;1.00
336;DHT22;156;48.738;9.228;2022-08-21T15:25:35;29.10;1.00
336;DHT22;156;48.738;9.228;2022-08-21T15:28:04;28.60;1.00
336;DHT22;156;48.738;9.228;2022-08-21T15:30:32;28.60;1.00
336;DHT22;156;48.738;9.228;2022-08-21T15:32:59;28.80;1.00
336;DHT22;156;48.738;9.228;2022-08-21T15:35:27;28.90;1.00
336;DHT22;156;48.738;9.228;2022-08-21T15:37:54;28.80;1.00
336;DHT22;156;48.738;9.228;2022-08-21T15:40:21;28.70;1.00
336;DHT22;156;48.738;9.228;2022-08-21T15:42:50;29.30;1.00
336;DHT22;156;48.738;9.228;2022-08-21T15:45:19;29.60;1.00
336;DHT22;156;48.738;9.228;2022-08-21T15:47:49;30.30;1.00
336;DHT22;156;48.738;9.228;2022-08-21T15:50:16;30.70;1.00
336;DHT22;156;48.738;9.228;2022-08-21T15:52:44;31.20;1.00
336;DHT22;156;48.738;9.228;2022-08-21T15:55:12;31.30;1.00
336;DHT22;156;48.738;9.228;2022-08-21T15:57:44;30.30;1.00
336;DHT22;156;48.738;9.228;2022-08-21T16:00:16;30.10;1.00
336;DHT22;156;48.738;9.228;2022-08-21T16:02:45;29.60;1.00
336;DHT22;156;48.738;9.228;2022-08-21T16:05:13;29.20;1.00
336;DHT22;156;48.738;9.228;2022-08-21T16:07:42;28.70;1.00
336;DHT22;156;48.738;9.228;2022-08-21T16:10:10;29.20;1.00
336;DHT22;156;48.738;9.228;2022-08-21T16:12:39;29.70;1.00
336;DHT22;156;48.738;9.228;2022-08-21T16:15:14;30.00;1.00
336;DHT22;156;48.738;9.228;2022-08-21T16:17:45;30.30;1.00
336;DHT22;156;48.738;9.228;2022-08-21T16:20:16;30.20;1.00
336;DHT22;156;48.738;9.228;2022-08-21T16:22:44;29.80;1.00
336;DHT22;156;48.738;9.228;2022-08-21T16:25:12;29.90;1.00
336;DHT22;156;48.738;9.228;2022-08-21T16:27:41;30.30;1.00
336;DHT22;156;48.738;9.228;2022-08-21T16:30:10;30.30;1.00
336;DHT22;156;48.738;9.228;2022-08-21T16:32:38;30.60;1.00
336;DHT22;156;48.738;9.228;2022-08-21T16:35:06;31.00;1.00
336;DHT22;156;48.738;9.228;2022-08-21T16:37:33;31.40;1.00
336;DHT22;156;48.738;9.228;2022-08-21T16:40:00;31.60;1.00
336;DHT22;156;48.738;9.228;2022-08-21T16:42:27;31.70;1.00
336;DHT22;156;48.738;9.228;2022-08-21T16:44:54;32.00;1.00
336;DHT22;156;48.738;9.228;2022-08-21T16:47:22;31.70;1.00
336;DHT22;156;48.738;9.228;2022-08-21T16:49:50;31.40;1.00
336;DHT22;156;48.738;9.228;2022-08-21T16:52:19;31.00;1.00
336;DHT22;156;48.738;9.228;2022-08-21T16:54:46;30.60;1.00
336;DHT22;156;48.738;9.228;2022-08-21T16:57:14;30.10;1.00
336;DHT22;156;48.738;9.228;2022-08-21T16:59:41;30.00;1.00
336;DHT22;156;48.738;9.228;2022-08-21T17:02:20;30.20;1.00
336;DHT22;156;48.738;9.228;2022-08-21T17:04:50;30.00;1.00
336;DHT22;156;48.738;9.228;2022-08-21T17:07:17;30.20;1.00